Clarks Point, Alaska
Current Conditions -  °F | °C
As of 2:56 AM on Saturday 25 Oct 2014 (Local Time) from PFCL Reporting Station
Overcast Overcast  
Wind Chill: 18°   Ceiling: 500
Heat Index: 26°   Visibility: 8mi
Dew Point: 25°   Wind: 7mph
Humidity: 96%   Direction: 130°SE
Pressure: 30.01"   Gusts: NA
Location:  58.84°N, 158.55°W
Report Text: PFCL 251056Z AUTO 13006KT 8SM OVC005 M03/M04 A3001 RMK AO2 SLP165 T10331039 FZRANO
Loading
Personal Weather Stations






























Interactive Weather Map
Tropical Storm Tracking
New forecast layout! Learn more

10-Day Weather Forecast

Advertisements
Track Severe Weather on mobile